createdAt,value
2018-05-26T00:01:38.026Z,4.53
2018-05-26T00:04:09.386Z,4.53
2018-05-26T00:06:37.622Z,4.83
2018-05-26T00:09:05.843Z,5.37
2018-05-26T00:11:34.079Z,4.20
2018-05-26T00:14:02.295Z,4.80
2018-05-26T00:16:30.521Z,4.40
2018-05-26T00:18:58.785Z,4.33
2018-05-26T00:21:27.778Z,5.07
2018-05-26T00:23:56.765Z,4.80
2018-05-26T00:26:24.993Z,4.97
2018-05-26T00:28:53.232Z,4.47
2018-05-26T00:31:22.217Z,4.50
2018-05-26T00:33:51.226Z,4.63
2018-05-26T00:36:20.217Z,5.20
2018-05-26T00:38:49.225Z,4.37
2018-05-26T00:41:17.445Z,5.00
2018-05-26T00:43:45.668Z,5.30
2018-05-26T00:46:13.910Z,5.57
2018-05-26T00:48:42.115Z,4.83
2018-05-26T00:51:10.354Z,5.00
2018-05-26T00:53:38.584Z,5.97
2018-05-26T00:56:06.822Z,5.80
2018-05-26T00:58:36.563Z,5.20
2018-05-26T01:01:04.815Z,5.47
2018-05-26T01:03:33.832Z,5.03
2018-05-26T01:06:02.081Z,5.37
2018-05-26T01:08:31.078Z,5.40
2018-05-26T01:11:00.087Z,5.53
2018-05-26T01:13:29.093Z,5.37
2018-05-26T01:15:57.324Z,6.43
2018-05-26T01:18:26.285Z,5.10
2018-05-26T01:20:54.494Z,4.93
2018-05-26T01:23:22.719Z,5.00
2018-05-26T01:25:50.973Z,4.70
2018-05-26T01:28:19.949Z,6.20
2018-05-26T01:30:48.942Z,5.33
2018-05-26T01:33:17.167Z,4.90
2018-05-26T01:35:45.411Z,5.20
2018-05-26T01:38:14.387Z,4.80
2018-05-26T01:40:43.380Z,5.43
2018-05-26T01:43:11.610Z,5.47
2018-05-26T01:45:39.829Z,5.67
2018-05-26T01:48:08.137Z,4.97
2018-05-26T01:50:36.354Z,5.50
2018-05-26T01:53:04.763Z,4.97
2018-05-26T01:55:32.950Z,5.73
2018-05-26T01:58:01.966Z,4.97
2018-05-26T02:00:30.180Z,6.43
2018-05-26T02:02:58.416Z,5.60
2018-05-26T02:05:26.697Z,5.43
2018-05-26T02:07:54.925Z,5.47
2018-05-26T02:10:23.150Z,5.77
2018-05-26T02:12:51.369Z,4.83
2018-05-26T02:15:19.608Z,5.53
2018-05-26T02:17:47.853Z,4.93
2018-05-26T02:20:16.854Z,5.27
2018-05-26T02:22:45.844Z,5.27
2018-05-26T02:25:14.852Z,4.90
2018-05-26T02:27:43.071Z,5.27
2018-05-26T02:30:11.319Z,5.83
2018-05-26T02:32:39.580Z,5.10
2018-05-26T02:35:07.787Z,4.93
2018-05-26T02:37:36.035Z,5.13
2018-05-26T02:40:04.274Z,5.53
2018-05-26T02:42:32.494Z,5.60
2018-05-26T02:45:00.744Z,4.77
2018-05-26T02:47:29.815Z,5.40
2018-05-26T02:49:58.038Z,5.27
2018-05-26T02:52:26.270Z,5.27
2018-05-26T02:54:54.487Z,5.00
2018-05-26T02:57:22.753Z,5.37
2018-05-26T02:59:50.972Z,5.07
2018-05-26T03:02:19.229Z,5.13
2018-05-26T03:04:53.090Z,5.20
2018-05-26T03:07:27.828Z,5.20
2018-05-26T03:10:02.666Z,5.30
2018-05-26T03:12:36.554Z,5.83
2018-05-26T03:15:04.345Z,5.70
2018-05-26T03:17:34.944Z,5.50
2018-05-26T03:20:03.183Z,5.63
2018-05-26T03:22:31.392Z,5.50
2018-05-26T03:24:59.712Z,5.40
2018-05-26T03:27:27.927Z,5.03
2018-05-26T03:29:56.171Z,5.77
2018-05-26T03:32:25.163Z,6.17
2018-05-26T03:34:53.417Z,6.07
2018-05-26T03:37:22.424Z,5.23
2018-05-26T03:39:50.642Z,5.73
2018-05-26T03:42:18.879Z,5.90
2018-05-26T03:44:47.106Z,5.90
2018-05-26T03:47:16.858Z,6.03
2018-05-26T03:49:45.079Z,6.30
2018-05-26T03:52:13.303Z,6.20
2018-05-26T03:58:01.998Z,6.03
2018-05-26T04:00:30.213Z,5.70
2018-05-26T04:02:58.458Z,5.60
2018-05-26T04:05:26.678Z,6.03
2018-05-26T04:07:54.993Z,6.30
2018-05-26T04:10:23.235Z,6.57
2018-05-26T04:12:51.548Z,6.20
2018-05-26T04:15:19.768Z,6.60
2018-05-26T04:17:48.003Z,6.47
2018-05-26T04:20:16.216Z,6.13
2018-05-26T04:22:44.456Z,5.93
2018-05-26T04:25:12.694Z,5.80
2018-05-26T04:27:40.954Z,6.77
2018-05-26T04:30:09.190Z,5.97
2018-05-26T04:32:37.414Z,5.87
2018-05-26T04:35:05.724Z,6.03
2018-05-26T04:37:33.950Z,6.10
2018-05-26T04:40:02.304Z,6.20
2018-05-26T04:42:30.530Z,6.00
2018-05-26T04:44:58.791Z,6.00
2018-05-26T04:47:27.119Z,5.60
2018-05-26T04:49:55.395Z,6.50
2018-05-26T04:52:23.657Z,6.00
2018-05-26T04:54:51.949Z,6.00
2018-05-26T04:57:21.142Z,5.90
2018-05-26T04:59:49.397Z,5.87
2018-05-26T05:02:18.376Z,6.20
2018-05-26T05:04:46.620Z,6.10
2018-05-26T05:07:14.856Z,6.27
2018-05-26T05:09:43.112Z,5.93
2018-05-26T05:12:11.360Z,5.93
2018-05-26T05:14:39.594Z,6.00
2018-05-26T05:17:07.839Z,5.83
2018-05-26T05:19:36.078Z,6.90
2018-05-26T05:22:04.288Z,6.57
2018-05-26T05:24:32.535Z,6.43
2018-05-26T05:27:00.749Z,6.33
2018-05-26T05:29:29.757Z,6.30
2018-05-26T05:31:58.757Z,6.77
2018-05-26T05:34:26.991Z,5.97
2018-05-26T05:36:55.206Z,5.70
2018-05-26T05:39:23.488Z,6.03
2018-05-26T05:41:51.714Z,6.33
2018-05-26T05:44:19.929Z,6.00
2018-05-26T05:46:48.932Z,5.97
2018-05-26T05:49:17.164Z,5.97
2018-05-26T05:51:45.387Z,6.23
2018-05-26T05:54:13.603Z,5.87
2018-05-26T05:56:41.831Z,6.10
2018-05-26T05:59:10.052Z,5.80
2018-05-26T06:01:38.309Z,5.63
2018-05-26T06:04:06.535Z,6.30
2018-05-26T06:06:36.284Z,5.83
2018-05-26T06:09:05.305Z,5.93
2018-05-26T06:11:33.561Z,5.63
2018-05-26T06:14:01.812Z,7.30
2018-05-26T06:16:30.799Z,6.27
2018-05-26T06:18:59.808Z,5.57
2018-05-26T06:21:28.028Z,5.27
2018-05-26T06:23:56.273Z,6.20
2018-05-26T06:26:24.496Z,6.30
2018-05-26T06:28:52.729Z,6.73
2018-05-26T06:31:21.226Z,6.30
2018-05-26T06:33:49.438Z,5.47
2018-05-26T06:36:17.711Z,5.30
2018-05-26T06:38:45.897Z,5.90
2018-05-26T06:41:14.897Z,4.97
2018-05-26T06:43:43.880Z,5.27
2018-05-26T06:46:12.128Z,7.00
2018-05-26T06:48:40.380Z,6.13
2018-05-26T06:51:08.594Z,5.00
2018-05-26T06:53:36.912Z,5.53
2018-05-26T06:56:05.136Z,5.67
2018-05-26T06:58:33.378Z,5.10
2018-05-26T07:01:01.608Z,5.07
2018-05-26T07:03:29.815Z,7.60
2018-05-26T07:05:58.063Z,5.40
2018-05-26T07:08:27.173Z,6.43
2018-05-26T07:10:55.414Z,4.43
2018-05-26T07:13:23.639Z,4.77
2018-05-26T07:15:51.869Z,4.80
2018-05-26T07:18:20.095Z,4.67
2018-05-26T07:20:48.316Z,4.20
2018-05-26T07:23:16.576Z,4.47
2018-05-26T07:25:44.821Z,4.80
2018-05-26T07:28:13.051Z,4.97
2018-05-26T07:30:41.282Z,5.10
2018-05-26T07:33:09.490Z,4.50
2018-05-26T07:35:37.768Z,4.00
2018-05-26T07:38:06.157Z,4.43
2018-05-26T07:40:34.381Z,4.67
2018-05-26T07:43:02.963Z,4.23
2018-05-26T07:45:31.296Z,4.03
2018-05-26T07:47:59.511Z,4.20
2018-05-26T07:50:27.809Z,4.07
2018-05-26T07:52:56.048Z,4.80
2018-05-26T07:55:24.387Z,4.47
2018-05-26T07:57:52.608Z,4.10
2018-05-26T08:00:21.629Z,3.60
2018-05-26T08:02:49.848Z,4.23
2018-05-26T08:05:18.174Z,3.87
2018-05-26T08:07:46.454Z,3.37
2018-05-26T08:10:14.683Z,3.67
2018-05-26T08:12:42.922Z,3.80
2018-05-26T08:15:11.179Z,3.57
2018-05-26T08:17:39.448Z,3.63
2018-05-26T08:20:07.730Z,3.30
2018-05-26T08:22:35.970Z,3.60
2018-05-26T08:25:04.198Z,3.10
2018-05-26T08:27:32.461Z,3.30
2018-05-26T08:30:00.736Z,3.67
2018-05-26T08:32:28.979Z,3.60
2018-05-26T08:34:57.205Z,3.53
2018-05-26T08:37:25.538Z,3.40
2018-05-26T08:39:53.727Z,3.20
2018-05-26T08:42:22.734Z,3.50
2018-05-26T08:44:50.947Z,3.37
2018-05-26T08:47:19.290Z,3.07
2018-05-26T08:49:47.538Z,3.10
2018-05-26T08:52:16.656Z,3.70
2018-05-26T08:54:44.903Z,4.30
2018-05-26T08:57:13.142Z,4.20
2018-05-26T08:59:41.496Z,4.30
2018-05-26T09:02:09.712Z,4.43
2018-05-26T09:04:38.061Z,4.10
2018-05-26T09:07:06.301Z,4.40
2018-05-26T09:09:35.304Z,3.90
2018-05-26T09:12:03.549Z,3.83
2018-05-26T09:14:31.759Z,4.30
2018-05-26T09:17:00.013Z,4.10
2018-05-26T09:19:29.000Z,4.23
2018-05-26T09:21:57.252Z,4.67
2018-05-26T09:24:25.489Z,4.13
2018-05-26T09:26:54.462Z,4.43
2018-05-26T09:29:23.430Z,4.20
2018-05-26T09:31:53.198Z,4.13
2018-05-26T09:34:21.422Z,4.27
2018-05-26T09:36:51.135Z,3.73
2018-05-26T09:39:19.422Z,3.53
2018-05-26T09:41:47.640Z,4.30
2018-05-26T09:44:15.886Z,3.90
2018-05-26T09:46:44.868Z,4.50
2018-05-26T09:49:13.866Z,4.63
2018-05-26T09:51:42.099Z,4.20
2018-05-26T09:54:10.332Z,4.43
2018-05-26T09:56:38.551Z,4.70
2018-05-26T09:59:06.902Z,4.60
2018-05-26T10:01:35.285Z,4.33
2018-05-26T10:04:03.512Z,4.57
2018-05-26T10:06:31.836Z,5.10
2018-05-26T10:09:00.103Z,4.60
2018-05-26T10:11:28.401Z,4.53
2018-05-26T10:13:56.642Z,5.73
2018-05-26T10:16:25.664Z,5.57
2018-05-26T10:18:53.879Z,9.17
2018-05-26T10:21:22.890Z,8.60
2018-05-26T10:23:51.108Z,4.43
2018-05-26T10:26:19.398Z,4.37
2018-05-26T10:28:47.601Z,12.47
2018-05-26T10:31:15.923Z,6.90
2018-05-26T10:33:44.206Z,5.47
2018-05-26T10:36:12.430Z,8.77
2018-05-26T10:38:40.748Z,7.30
2018-05-26T10:41:09.009Z,6.73
2018-05-26T10:43:38.014Z,6.33
2018-05-26T10:46:18.888Z,5.10
2018-05-26T10:48:47.866Z,3.50
2018-05-26T10:51:16.893Z,3.80
2018-05-26T10:53:45.132Z,3.20
2018-05-26T10:56:14.877Z,3.80
2018-05-26T10:58:43.136Z,4.00
2018-05-26T11:01:12.259Z,4.30
2018-05-26T11:03:40.520Z,4.83
2018-05-26T11:06:08.733Z,3.80
2018-05-26T11:08:36.955Z,4.00
2018-05-26T11:11:05.963Z,3.27
2018-05-26T11:13:34.989Z,3.77
2018-05-26T11:16:03.249Z,3.57
2018-05-26T11:18:31.424Z,3.90
2018-05-26T11:20:59.688Z,3.67
2018-05-26T11:23:27.939Z,3.90
2018-05-26T11:25:56.351Z,7.10
2018-05-26T11:28:24.572Z,4.33
2018-05-26T11:30:52.985Z,5.30
2018-05-26T11:33:21.152Z,3.93
2018-05-26T11:35:50.159Z,4.80
2018-05-26T11:38:18.472Z,8.13
2018-05-26T11:40:46.690Z,4.93
2018-05-26T11:43:14.961Z,4.60
2018-05-26T11:45:43.177Z,3.87
2018-05-26T11:48:11.409Z,3.93
2018-05-26T11:50:39.624Z,4.87
2018-05-26T11:53:07.898Z,6.07
2018-05-26T11:55:36.125Z,8.30
2018-05-26T11:58:04.516Z,4.87
2018-05-26T12:00:32.745Z,4.20
2018-05-26T12:03:01.078Z,4.70
2018-05-26T12:05:29.290Z,3.97
2018-05-26T12:07:57.974Z,4.07
2018-05-26T12:10:26.229Z,3.60
2018-05-26T12:12:54.474Z,4.20
2018-05-26T12:15:22.690Z,4.23
2018-05-26T12:17:52.440Z,4.40
2018-05-26T12:20:20.699Z,4.37
2018-05-26T12:22:48.975Z,4.00
2018-05-26T12:25:17.199Z,3.60
2018-05-26T12:27:45.503Z,3.47
2018-05-26T12:30:14.500Z,4.20
2018-05-26T12:32:43.498Z,4.00
2018-05-26T12:35:11.785Z,4.13
2018-05-26T12:37:40.035Z,4.47
2018-05-26T12:40:08.330Z,5.00
2018-05-26T12:42:36.507Z,5.10
2018-05-26T12:45:04.727Z,4.50
2018-05-26T12:47:32.975Z,4.10
2018-05-26T12:50:01.215Z,4.50
2018-05-26T12:52:29.487Z,4.40
2018-05-26T12:54:57.690Z,3.93
2018-05-26T12:57:25.959Z,4.00
2018-05-26T12:59:54.252Z,4.10
2018-05-26T13:02:22.507Z,4.03
2018-05-26T13:04:50.746Z,4.20
2018-05-26T13:07:19.076Z,4.27
2018-05-26T13:09:47.413Z,4.53
2018-05-26T13:12:15.640Z,4.20
2018-05-26T13:14:43.903Z,4.30
2018-05-26T13:17:12.178Z,4.80
2018-05-26T13:19:40.441Z,4.00
2018-05-26T13:22:09.437Z,4.07
2018-05-26T13:24:38.422Z,4.23
2018-05-26T13:27:07.427Z,4.00
2018-05-26T13:29:36.429Z,4.63
2018-05-26T13:32:05.495Z,3.97
2018-05-26T13:34:33.691Z,5.40
2018-05-26T13:37:02.689Z,4.77
2018-05-26T13:39:31.721Z,3.93
2018-05-26T13:42:00.724Z,4.70
2018-05-26T13:44:28.973Z,4.60
2018-05-26T13:46:57.206Z,4.30
2018-05-26T13:49:26.226Z,4.23
2018-05-26T13:51:55.469Z,5.70
2018-05-26T13:54:23.711Z,8.03
2018-05-26T13:56:51.931Z,8.60
2018-05-26T13:59:20.234Z,5.47
2018-05-26T14:01:49.270Z,5.53
2018-05-26T14:04:17.519Z,6.83
2018-05-26T14:06:46.489Z,4.43
2018-05-26T14:09:14.736Z,5.07
2018-05-26T14:11:42.951Z,6.63
2018-05-26T14:14:11.964Z,4.70
2018-05-26T14:16:40.208Z,4.53
2018-05-26T14:19:08.438Z,3.27
2018-05-26T14:21:36.675Z,8.60
2018-05-26T14:24:05.655Z,4.00
2018-05-26T14:26:33.896Z,3.97
2018-05-26T14:29:02.104Z,3.80
2018-05-26T14:31:31.120Z,3.87
2018-05-26T14:34:00.101Z,3.70
2018-05-26T14:36:28.348Z,3.50
2018-05-26T14:38:56.572Z,4.00
2018-05-26T14:41:24.838Z,3.90
2018-05-26T14:43:53.820Z,3.97
2018-05-26T14:46:22.803Z,4.20
2018-05-26T14:48:51.045Z,3.97
2018-05-26T14:51:19.420Z,3.83
2018-05-26T14:53:47.623Z,4.20
2018-05-26T14:56:15.869Z,3.97
2018-05-26T14:58:44.168Z,3.90
2018-05-26T15:01:12.386Z,3.67
2018-05-26T15:03:41.488Z,3.63
2018-05-26T15:06:09.727Z,3.97
2018-05-26T15:08:37.965Z,3.70
2018-05-26T15:11:06.168Z,4.20
2018-05-26T15:13:34.385Z,3.90
2018-05-26T15:16:03.407Z,3.97
2018-05-26T15:18:31.652Z,4.63
2018-05-26T15:21:00.667Z,4.27
2018-05-26T15:23:29.652Z,3.90
2018-05-26T15:25:57.881Z,4.30
2018-05-26T15:28:26.120Z,4.20
2018-05-26T15:30:54.364Z,4.20
2018-05-26T15:33:23.376Z,4.17
2018-05-26T15:35:51.646Z,4.30
2018-05-26T15:38:19.875Z,3.73
2018-05-26T15:40:48.154Z,4.27
2018-05-26T15:43:16.371Z,4.33
2018-05-26T15:45:45.362Z,3.73
2018-05-26T15:48:14.368Z,3.70
2018-05-26T15:50:42.611Z,3.70
2018-05-26T15:53:10.889Z,4.30
2018-05-26T15:55:39.108Z,5.40
2018-05-26T15:58:07.349Z,5.53
2018-05-26T16:00:35.572Z,4.03
2018-05-26T16:03:03.812Z,4.00
2018-05-26T16:05:32.043Z,3.73
2018-05-26T16:08:00.305Z,4.20
2018-05-26T16:10:28.545Z,4.20
2018-05-26T16:12:57.540Z,4.40
2018-05-26T16:15:25.773Z,4.80
2018-05-26T16:17:54.028Z,4.13
2018-05-26T16:20:22.268Z,4.43
2018-05-26T16:22:50.482Z,4.90
2018-05-26T16:25:18.724Z,6.57
2018-05-26T16:27:46.965Z,4.97
2018-05-26T16:30:15.181Z,8.77
2018-05-26T16:32:43.419Z,8.50
2018-05-26T16:35:11.632Z,4.63
2018-05-26T16:37:39.891Z,15.10
2018-05-26T16:40:08.896Z,5.73
2018-05-26T16:42:37.892Z,7.73
2018-05-26T16:45:06.194Z,5.37
2018-05-26T16:47:34.417Z,7.60
2018-05-26T16:50:02.645Z,6.07
2018-05-26T16:52:30.901Z,9.27
2018-05-26T16:54:59.108Z,8.33
2018-05-26T16:57:27.346Z,5.00
2018-05-26T16:59:56.360Z,4.40
2018-05-26T17:02:24.598Z,4.03
2018-05-26T17:04:53.659Z,4.43
2018-05-26T17:07:21.912Z,4.63
2018-05-26T17:09:50.140Z,4.30
2018-05-26T17:12:18.347Z,4.27
2018-05-26T17:14:46.606Z,5.90
2018-05-26T17:17:15.596Z,5.30
2018-05-26T17:19:44.588Z,4.47
2018-05-26T17:22:13.631Z,4.67
2018-05-26T17:24:41.844Z,3.90
2018-05-26T17:27:10.130Z,3.93
2018-05-26T17:29:39.134Z,3.80
2018-05-26T17:32:08.151Z,3.80
2018-05-26T17:34:36.410Z,3.87
2018-05-26T17:37:05.437Z,6.13
2018-05-26T17:39:33.693Z,10.70
2018-05-26T17:42:01.976Z,8.20
2018-05-26T17:44:30.248Z,7.07
2018-05-26T17:46:58.463Z,5.20
2018-05-26T17:49:26.705Z,4.43
2018-05-26T17:51:55.702Z,5.63
2018-05-26T17:54:23.915Z,4.90
2018-05-26T17:56:52.160Z,4.30
2018-05-26T17:59:23.895Z,7.37
2018-05-26T18:01:52.204Z,5.50
2018-05-26T18:04:20.420Z,4.80
2018-05-26T18:06:49.419Z,4.57
2018-05-26T18:09:18.449Z,4.80
2018-05-26T18:14:22.145Z,5.00
2018-05-26T18:16:51.152Z,5.47
2018-05-26T18:19:19.396Z,8.63
2018-05-26T18:21:47.620Z,5.60
2018-05-26T18:24:15.844Z,9.77
2018-05-26T18:26:44.083Z,6.03
2018-05-26T18:29:12.319Z,5.87
2018-05-26T18:31:41.305Z,5.50
2018-05-26T18:34:10.309Z,5.17
2018-05-26T18:36:38.528Z,4.77
2018-05-26T18:39:06.866Z,5.80
2018-05-26T18:41:35.065Z,5.17
2018-05-26T18:44:03.350Z,4.97
2018-05-26T18:46:31.573Z,5.33
2018-05-26T18:49:00.439Z,5.50
2018-05-26T18:51:28.697Z,5.57
2018-05-26T18:53:56.933Z,5.80
2018-05-26T18:56:25.926Z,4.90
2018-05-26T18:58:54.961Z,5.00
2018-05-26T19:01:23.214Z,4.87
2018-05-26T19:03:52.236Z,5.50
2018-05-26T19:06:20.478Z,5.30
2018-05-26T19:08:48.720Z,5.47
2018-05-26T19:11:16.929Z,4.70
2018-05-26T19:13:45.179Z,5.03
2018-05-26T19:16:14.155Z,6.07
2018-05-26T19:18:42.537Z,5.90
2018-05-26T19:21:10.806Z,5.13
2018-05-26T19:23:39.056Z,5.57
2018-05-26T19:26:07.288Z,5.80
2018-05-26T19:28:36.299Z,6.23
2018-05-26T19:31:04.545Z,5.70
2018-05-26T19:33:32.759Z,5.57
2018-05-26T19:36:01.029Z,5.13
2018-05-26T19:38:30.017Z,6.10
2018-05-26T19:40:58.293Z,6.43
2018-05-26T19:43:26.508Z,6.00
2018-05-26T19:45:54.733Z,6.00
2018-05-26T19:48:22.974Z,5.77
2018-05-26T19:50:51.240Z,6.50
2018-05-26T19:53:19.488Z,6.50
2018-05-26T19:55:47.690Z,5.90
2018-05-26T19:58:15.917Z,6.60
2018-05-26T20:00:44.180Z,6.43
2018-05-26T20:03:13.233Z,6.77
2018-05-26T20:05:41.481Z,6.20
2018-05-26T20:08:09.736Z,6.60
2018-05-26T20:10:38.755Z,6.13
2018-05-26T20:13:06.997Z,6.83
2018-05-26T20:15:36.065Z,6.60
2018-05-26T20:18:04.323Z,7.00
2018-05-26T20:20:32.575Z,7.10
2018-05-26T20:23:00.813Z,6.97
2018-05-26T20:25:29.076Z,7.40
2018-05-26T20:27:57.315Z,7.47
2018-05-26T20:30:25.556Z,7.97
2018-05-26T20:32:54.545Z,7.20
2018-05-26T20:35:23.555Z,7.57
2018-05-26T20:37:51.798Z,7.13
2018-05-26T20:40:20.036Z,7.57
2018-05-26T20:42:48.307Z,8.53
2018-05-26T20:45:16.519Z,8.57
2018-05-26T20:47:44.741Z,8.17
2018-05-26T20:50:13.039Z,9.77
2018-05-26T20:52:41.300Z,9.20
2018-05-26T20:55:09.560Z,10.17
2018-05-26T20:57:37.797Z,9.10
2018-05-26T21:00:06.048Z,10.07
2018-05-26T21:02:34.289Z,10.17
2018-05-26T21:05:02.529Z,12.83
2018-05-26T21:07:30.793Z,12.30
2018-05-26T21:09:59.072Z,12.97
2018-05-26T21:12:27.309Z,13.03
2018-05-26T21:14:55.552Z,15.10
2018-05-26T21:17:24.576Z,17.30
2018-05-26T21:19:52.807Z,12.17
2018-05-26T21:22:21.078Z,12.30
2018-05-26T21:24:49.301Z,13.50
2018-05-26T21:27:17.560Z,12.03
2018-05-26T21:29:45.813Z,12.43
2018-05-26T21:32:14.043Z,14.00
2018-05-26T21:34:42.304Z,13.97
2018-05-26T21:37:10.546Z,15.43
2018-05-26T21:39:38.812Z,15.37
2018-05-26T21:42:07.061Z,14.93
2018-05-26T21:44:35.322Z,15.43
2018-05-26T21:47:03.555Z,15.50
2018-05-26T21:49:31.803Z,14.57
2018-05-26T21:52:00.125Z,14.10
2018-05-26T21:54:29.124Z,14.53
2018-05-26T21:56:58.133Z,14.00
2018-05-26T21:59:26.405Z,14.07
2018-05-26T22:01:54.703Z,15.07
2018-05-26T22:04:22.955Z,14.20
2018-05-26T22:06:51.192Z,13.67
2018-05-26T22:09:19.482Z,13.57
2018-05-26T22:11:47.726Z,14.70
2018-05-26T22:14:16.787Z,12.93
2018-05-26T22:16:44.980Z,14.07
2018-05-26T22:19:13.234Z,13.33
2018-05-26T22:21:41.510Z,13.83
2018-05-26T22:24:10.491Z,13.17
2018-05-26T22:26:39.539Z,13.07
2018-05-26T22:29:07.781Z,13.07
2018-05-26T22:31:36.769Z,12.87
2018-05-26T22:34:05.029Z,12.80
2018-05-26T22:36:34.172Z,12.67
2018-05-26T22:39:02.428Z,13.30
2018-05-26T22:41:30.677Z,12.80
2018-05-26T22:43:59.714Z,12.20
2018-05-26T22:46:27.935Z,13.27
2018-05-26T22:48:56.940Z,12.43
2018-05-26T22:51:26.240Z,12.47
2018-05-26T22:53:54.505Z,12.50
2018-05-26T22:56:22.747Z,11.67
2018-05-26T22:58:50.993Z,13.00
2018-05-26T23:01:19.260Z,13.30
2018-05-26T23:03:47.526Z,12.50
2018-05-26T23:06:16.519Z,13.53
2018-05-26T23:08:45.577Z,12.80
2018-05-26T23:13:48.359Z,12.80
2018-05-26T23:16:16.608Z,12.63
2018-05-26T23:18:44.875Z,12.30
2018-05-26T23:21:13.124Z,13.03
2018-05-26T23:23:41.364Z,12.97
2018-05-26T23:26:09.626Z,13.43
2018-05-26T23:28:37.851Z,11.67
2018-05-26T23:31:06.107Z,12.73
2018-05-26T23:33:34.343Z,13.17
2018-05-26T23:36:02.592Z,12.80
2018-05-26T23:38:31.624Z,12.40
2018-05-26T23:40:59.868Z,11.73
2018-05-26T23:43:28.887Z,12.60
2018-05-26T23:45:57.124Z,12.70
2018-05-26T23:48:25.415Z,11.53
2018-05-26T23:50:53.695Z,11.30
2018-05-26T23:53:22.750Z,12.63
2018-05-26T23:55:50.985Z,15.33
2018-05-26T23:58:19.240Z,13.17
